Inadale, Texas
Current Conditions -  °F | °C
As of 11:55 PM on Saturday 20 Dec 2014 (Local Time) from KSWW Reporting Station
Clear Clear  
Wind Chill: 39°   Ceiling: Unl
Heat Index: 45°   Visibility: 10mi
Dew Point: 41°   Wind: 10mph
Humidity: 87%   Direction: 150°SSE
Pressure: 30.1"   Gusts: NA
Location:  32.3875°N, 100.536°W
Report Text: KSWW 210555Z AUTO 15009KT 10SM CLR 07/05 A3010 RMK AO2 T00700050 10106 20069 401260057
Loading
Personal Weather Stations






























Interactive Weather Map New forecast layout! Learn more

10-Day Weather Forecast

Advertisements
Track Severe Weather on mobile